createdAt,value
2022-11-30T00:01:12.320Z,32.30
2022-11-30T00:03:38.632Z,32.30
2022-11-30T00:06:10.432Z,32.30
2022-11-30T00:08:36.816Z,32.30
2022-11-30T00:11:11.373Z,32.30
2022-11-30T00:13:37.698Z,32.30
2022-11-30T00:16:04.372Z,32.30
2022-11-30T00:18:30.660Z,32.30
2022-11-30T00:21:15.484Z,32.30
2022-11-30T00:23:43.511Z,32.40
2022-11-30T00:26:12.355Z,32.30
2022-11-30T00:28:39.125Z,32.30
2022-11-30T00:31:09.542Z,32.30
2022-11-30T00:33:37.007Z,32.30
2022-11-30T00:36:06.060Z,32.30
2022-11-30T00:38:33.000Z,32.30
2022-11-30T00:41:00.024Z,32.30
2022-11-30T00:43:26.349Z,32.30
2022-11-30T00:45:52.684Z,32.30
2022-11-30T00:48:18.806Z,32.30
2022-11-30T00:50:44.865Z,32.40
2022-11-30T00:53:10.971Z,32.30
2022-11-30T00:55:37.031Z,32.30
2022-11-30T00:58:03.187Z,32.30
2022-11-30T01:00:29.369Z,32.30
2022-11-30T01:02:56.405Z,32.30
2022-11-30T01:05:22.614Z,32.30
2022-11-30T01:07:48.707Z,32.30
2022-11-30T01:10:14.961Z,32.30
2022-11-30T01:12:41.092Z,32.30
2022-11-30T01:15:07.672Z,32.40
2022-11-30T01:17:33.760Z,32.30
2022-11-30T01:19:59.938Z,32.30
2022-11-30T01:22:26.139Z,32.30
2022-11-30T01:24:52.207Z,32.30
2022-11-30T01:27:18.245Z,32.30
2022-11-30T01:29:44.299Z,32.30
2022-11-30T01:32:10.351Z,32.30
2022-11-30T01:34:36.394Z,32.30
2022-11-30T01:37:02.456Z,32.30
2022-11-30T01:39:28.521Z,32.30
2022-11-30T01:41:54.560Z,32.30
2022-11-30T01:44:25.917Z,32.30
2022-11-30T01:47:04.081Z,32.30
2022-11-30T01:49:37.389Z,32.30
2022-11-30T01:52:22.324Z,32.30
2022-11-30T01:54:53.913Z,32.30
2022-11-30T01:57:30.233Z,32.30
2022-11-30T02:00:00.372Z,32.30
2022-11-30T02:02:43.253Z,32.30
2022-11-30T02:05:10.598Z,32.30
2022-11-30T02:07:37.217Z,32.30
2022-11-30T02:10:03.692Z,32.30
2022-11-30T02:13:01.934Z,32.30
2022-11-30T02:15:35.384Z,32.30
2022-11-30T02:18:11.962Z,32.30
2022-11-30T02:21:04.222Z,32.30
2022-11-30T02:24:10.666Z,32.30
2022-11-30T02:27:14.797Z,32.90
2022-11-30T02:29:52.978Z,32.40
2022-11-30T02:32:27.191Z,32.40
2022-11-30T02:34:56.269Z,33.00
2022-11-30T02:37:24.161Z,32.40
2022-11-30T02:39:50.238Z,32.30
2022-11-30T02:42:16.710Z,32.30
2022-11-30T02:44:47.023Z,32.30
2022-11-30T02:47:30.768Z,33.00
2022-11-30T02:50:06.325Z,32.40
2022-11-30T02:52:33.653Z,32.40
2022-11-30T02:55:08.040Z,32.30
2022-11-30T02:57:34.674Z,32.40
2022-11-30T03:00:04.187Z,32.40
2022-11-30T03:02:30.312Z,32.40
2022-11-30T03:04:56.383Z,32.40
2022-11-30T03:07:22.533Z,32.40
2022-11-30T03:09:48.597Z,32.40
2022-11-30T03:12:14.641Z,32.40
2022-11-30T03:14:40.725Z,32.40
2022-11-30T03:17:06.912Z,32.40
2022-11-30T03:19:33.458Z,32.40
2022-11-30T03:22:00.599Z,32.40
2022-11-30T03:24:26.933Z,32.30
2022-11-30T03:26:52.991Z,32.30
2022-11-30T03:29:19.031Z,32.30
2022-11-30T03:31:45.078Z,32.40
2022-11-30T03:34:11.137Z,32.30
2022-11-30T03:36:37.204Z,32.30
2022-11-30T03:39:03.354Z,32.30
2022-11-30T03:41:29.603Z,32.40
2022-11-30T03:43:55.935Z,32.30
2022-11-30T03:46:22.923Z,32.30
2022-11-30T03:48:49.053Z,32.30
2022-11-30T03:51:15.194Z,32.30
2022-11-30T03:53:41.714Z,32.30
2022-11-30T03:56:10.400Z,32.40
2022-11-30T03:58:36.483Z,32.30
2022-11-30T04:01:13.228Z,32.30
2022-11-30T04:03:39.913Z,32.30
2022-11-30T04:06:07.281Z,32.30
2022-11-30T04:08:33.991Z,32.40
2022-11-30T04:11:01.373Z,32.30
2022-11-30T04:13:28.679Z,32.30
2022-11-30T04:15:55.123Z,32.30
2022-11-30T04:18:23.395Z,32.30
2022-11-30T04:20:54.523Z,32.40
2022-11-30T04:23:21.421Z,32.30
2022-11-30T04:25:48.022Z,32.30
2022-11-30T04:28:15.853Z,32.40
2022-11-30T04:30:42.773Z,32.30
2022-11-30T04:33:09.404Z,32.40
2022-11-30T04:35:44.964Z,32.30
2022-11-30T04:38:11.105Z,32.30
2022-11-30T04:40:41.463Z,32.30
2022-11-30T04:43:08.825Z,32.30
2022-11-30T04:45:35.635Z,32.30
2022-11-30T04:48:03.055Z,32.30
2022-11-30T04:50:29.248Z,32.30
2022-11-30T04:52:55.610Z,32.40
2022-11-30T04:55:21.706Z,32.40
2022-11-30T04:57:47.969Z,32.40
2022-11-30T05:00:15.947Z,32.30
2022-11-30T05:02:42.227Z,32.30
2022-11-30T05:05:08.752Z,32.40
2022-11-30T05:07:34.815Z,32.30
2022-11-30T05:10:01.077Z,32.40
2022-11-30T05:12:27.125Z,32.30
2022-11-30T05:14:53.180Z,32.30
2022-11-30T05:17:19.246Z,32.30
2022-11-30T05:19:45.346Z,32.40
2022-11-30T05:22:11.410Z,32.40
2022-11-30T05:24:37.466Z,32.40
2022-11-30T05:27:06.518Z,32.30
2022-11-30T05:29:37.373Z,32.30
2022-11-30T05:32:03.427Z,32.30
2022-11-30T05:34:30.034Z,32.30
2022-11-30T05:36:56.093Z,32.30
2022-11-30T05:39:22.142Z,32.30
2022-11-30T05:41:48.204Z,32.40
2022-11-30T05:44:14.540Z,32.40
2022-11-30T05:46:41.206Z,32.40
2022-11-30T05:49:07.392Z,32.40
2022-11-30T05:51:33.502Z,32.40
2022-11-30T05:53:59.681Z,32.40
2022-11-30T05:56:25.737Z,32.40
2022-11-30T05:58:51.881Z,32.40
2022-11-30T06:01:23.195Z,32.40
2022-11-30T06:03:49.928Z,32.70
2022-11-30T06:06:16.840Z,32.90
2022-11-30T06:08:43.321Z,32.90
2022-11-30T06:11:10.293Z,32.80
2022-11-30T06:13:36.562Z,32.60
2022-11-30T06:16:04.125Z,32.50
2022-11-30T06:18:30.589Z,32.30
2022-11-30T06:21:05.340Z,32.20
2022-11-30T06:23:32.085Z,31.80
2022-11-30T06:25:58.299Z,31.80
2022-11-30T06:28:24.425Z,31.80
2022-11-30T06:30:50.908Z,31.80
2022-11-30T06:33:20.918Z,31.90
2022-11-30T06:35:47.011Z,31.80
2022-11-30T06:38:13.292Z,31.80
2022-11-30T06:40:39.590Z,31.70
2022-11-30T06:43:05.786Z,31.70
2022-11-30T06:45:31.956Z,31.70
2022-11-30T06:47:58.274Z,31.60
2022-11-30T06:50:24.844Z,31.50
2022-11-30T06:52:50.899Z,31.50
2022-11-30T06:55:17.144Z,31.40
2022-11-30T06:57:43.226Z,31.40
2022-11-30T07:00:11.878Z,31.30
2022-11-30T07:02:38.062Z,31.30
2022-11-30T07:05:05.377Z,31.30
2022-11-30T07:07:31.575Z,32.00
2022-11-30T07:09:58.120Z,31.20
2022-11-30T07:12:25.137Z,31.10
2022-11-30T07:14:57.067Z,31.20
2022-11-30T07:17:23.128Z,31.20
2022-11-30T07:19:49.251Z,31.10
2022-11-30T07:22:15.320Z,31.10
2022-11-30T07:24:59.904Z,31.20
2022-11-30T07:27:25.944Z,31.30
2022-11-30T07:29:52.075Z,31.20
2022-11-30T07:32:18.503Z,31.20
2022-11-30T07:34:45.602Z,31.30
2022-11-30T07:37:11.937Z,31.20
2022-11-30T07:39:38.003Z,31.20
2022-11-30T07:42:04.042Z,31.50
2022-11-30T07:44:30.122Z,31.50
2022-11-30T07:46:56.303Z,31.30
2022-11-30T07:49:22.406Z,31.20
2022-11-30T07:51:48.477Z,31.10
2022-11-30T07:54:14.581Z,30.90
2022-11-30T07:56:40.635Z,30.70
2022-11-30T07:59:06.674Z,30.70
2022-11-30T08:01:33.459Z,30.70
2022-11-30T08:04:00.038Z,30.70
2022-11-30T08:06:28.761Z,30.60
2022-11-30T08:08:58.704Z,30.70
2022-11-30T08:11:28.457Z,30.70
2022-11-30T08:13:54.583Z,30.70
2022-11-30T08:16:23.340Z,30.60
2022-11-30T08:18:49.631Z,30.70
2022-11-30T08:21:18.852Z,30.70
2022-11-30T08:23:51.122Z,30.70
2022-11-30T08:26:19.975Z,30.80
2022-11-30T08:28:47.947Z,30.80
2022-11-30T08:31:35.336Z,30.70
2022-11-30T08:34:11.237Z,30.80
2022-11-30T08:36:38.509Z,30.70
2022-11-30T08:39:06.128Z,30.70
2022-11-30T08:41:34.283Z,30.70
2022-11-30T08:44:00.777Z,30.60
2022-11-30T08:46:50.223Z,30.60
2022-11-30T08:49:23.016Z,30.50
2022-11-30T08:54:38.866Z,30.60
2022-11-30T08:57:04.895Z,30.50
2022-11-30T08:59:31.504Z,30.50
2022-11-30T09:01:57.585Z,30.50
2022-11-30T09:04:23.672Z,30.50
2022-11-30T09:06:49.718Z,30.50
2022-11-30T09:09:15.821Z,30.40
2022-11-30T09:11:41.957Z,30.50
2022-11-30T09:14:09.456Z,30.40
2022-11-30T09:16:35.804Z,30.40
2022-11-30T09:19:02.233Z,30.40
2022-11-30T09:21:28.638Z,30.40
2022-11-30T09:23:55.628Z,30.40
2022-11-30T09:26:24.405Z,30.20
2022-11-30T09:28:52.305Z,30.30
2022-11-30T09:31:23.969Z,30.20
2022-11-30T09:33:51.143Z,30.30
2022-11-30T09:36:20.378Z,30.10
2022-11-30T09:38:47.244Z,30.20
2022-11-30T09:41:47.221Z,30.20
2022-11-30T09:44:43.107Z,30.20
2022-11-30T09:47:27.518Z,30.10
2022-11-30T09:50:00.877Z,30.00
2022-11-30T09:52:38.369Z,30.10
2022-11-30T09:55:08.902Z,30.00
2022-11-30T09:57:51.820Z,30.00
2022-11-30T10:00:22.915Z,30.00
2022-11-30T10:02:55.691Z,30.00
2022-11-30T10:05:28.843Z,30.10
2022-11-30T10:08:12.610Z,30.00
2022-11-30T10:10:52.968Z,30.00
2022-11-30T10:13:47.617Z,30.00
2022-11-30T10:16:35.793Z,30.00
2022-11-30T10:19:29.352Z,30.00
2022-11-30T10:22:22.981Z,30.00
2022-11-30T10:25:08.600Z,30.00
2022-11-30T10:27:52.673Z,30.00
2022-11-30T10:30:30.463Z,29.90
2022-11-30T10:32:59.978Z,29.90
2022-11-30T10:35:34.842Z,29.90
2022-11-30T10:38:11.292Z,29.90
2022-11-30T10:40:54.079Z,30.00
2022-11-30T10:43:38.058Z,29.80
2022-11-30T10:46:05.286Z,29.90
2022-11-30T10:48:39.641Z,29.80
2022-11-30T10:51:07.339Z,29.90
2022-11-30T10:53:33.936Z,29.80
2022-11-30T10:56:06.492Z,29.80
2022-11-30T10:58:35.564Z,29.80
2022-11-30T11:01:07.637Z,29.80
2022-11-30T11:03:34.000Z,29.80
2022-11-30T11:06:20.232Z,29.70
2022-11-30T11:08:46.407Z,29.80
2022-11-30T11:11:38.272Z,29.70
2022-11-30T11:14:24.760Z,29.70
2022-11-30T11:16:58.122Z,29.60
2022-11-30T11:19:36.663Z,29.70
2022-11-30T11:22:06.284Z,29.60
2022-11-30T11:24:33.450Z,29.60
2022-11-30T11:27:00.153Z,29.70
2022-11-30T11:29:35.519Z,30.00
2022-11-30T11:32:20.995Z,30.20
2022-11-30T11:34:51.097Z,30.00
2022-11-30T11:37:21.991Z,29.80
2022-11-30T11:40:08.813Z,29.80
2022-11-30T11:42:44.153Z,29.60
2022-11-30T11:45:25.313Z,29.70
2022-11-30T11:48:09.215Z,29.80
2022-11-30T11:51:05.453Z,29.60
2022-11-30T11:53:55.034Z,29.70
2022-11-30T11:56:24.209Z,29.70
2022-11-30T11:59:00.067Z,29.70
2022-11-30T12:01:41.250Z,29.70
2022-11-30T12:04:16.547Z,29.80
2022-11-30T12:06:44.758Z,29.70
2022-11-30T12:09:17.354Z,29.60
2022-11-30T12:11:47.776Z,29.60
2022-11-30T12:14:17.013Z,29.50
2022-11-30T12:17:13.484Z,29.50
2022-11-30T12:20:10.889Z,29.60
2022-11-30T12:22:37.833Z,29.60
2022-11-30T12:25:42.672Z,29.60
2022-11-30T12:28:24.323Z,29.60
2022-11-30T12:31:16.575Z,29.60
2022-11-30T12:34:09.644Z,29.50
2022-11-30T12:36:35.673Z,29.50
2022-11-30T12:39:18.117Z,29.60
2022-11-30T12:41:59.453Z,29.50
2022-11-30T12:44:42.374Z,29.50
2022-11-30T12:47:41.347Z,29.60
2022-11-30T12:50:23.497Z,29.70
2022-11-30T12:53:23.630Z,29.80
2022-11-30T12:56:04.473Z,29.70
2022-11-30T12:58:58.327Z,29.60
2022-11-30T13:02:07.980Z,29.60
2022-11-30T13:04:41.566Z,29.70
2022-11-30T13:07:26.218Z,29.70
2022-11-30T13:10:05.480Z,29.70
2022-11-30T13:12:37.948Z,29.70
2022-11-30T13:15:15.533Z,29.60
2022-11-30T13:17:43.200Z,29.60
2022-11-30T13:20:30.340Z,29.70
2022-11-30T13:23:04.923Z,29.70
2022-11-30T13:26:07.852Z,29.60
2022-11-30T13:28:42.485Z,29.60
2022-11-30T13:31:25.039Z,29.70
2022-11-30T13:33:54.228Z,29.60
2022-11-30T13:36:40.581Z,29.60
2022-11-30T13:39:23.528Z,29.60
2022-11-30T13:41:51.191Z,29.60
2022-11-30T13:44:36.933Z,29.60
2022-11-30T13:47:13.012Z,29.70
2022-11-30T13:49:39.296Z,29.60
2022-11-30T13:52:23.112Z,29.50
2022-11-30T13:54:53.187Z,29.50
2022-11-30T13:57:28.291Z,29.60
2022-11-30T13:59:56.277Z,29.60
2022-11-30T14:02:31.725Z,29.60
2022-11-30T14:05:16.117Z,29.60
2022-11-30T14:07:51.191Z,29.60
2022-11-30T14:10:45.207Z,29.70
2022-11-30T14:13:12.540Z,29.60
2022-11-30T14:15:38.547Z,29.60
2022-11-30T14:18:21.152Z,29.50
2022-11-30T14:20:52.140Z,29.60
2022-11-30T14:23:56.083Z,30.10
2022-11-30T14:26:29.581Z,29.60
2022-11-30T14:29:04.533Z,29.50
2022-11-30T14:31:36.657Z,29.50
2022-11-30T14:34:11.202Z,29.50
2022-11-30T14:36:47.976Z,29.50
2022-11-30T14:39:34.258Z,29.40
2022-11-30T14:42:01.609Z,29.40
2022-11-30T14:44:33.491Z,29.40
2022-11-30T14:47:20.086Z,29.50
2022-11-30T14:49:48.370Z,29.40
2022-11-30T14:52:23.317Z,29.40
2022-11-30T14:55:00.612Z,29.40
2022-11-30T14:58:07.445Z,29.40
2022-11-30T15:00:42.027Z,29.40
2022-11-30T15:03:30.080Z,29.80
2022-11-30T15:06:01.709Z,29.80
2022-11-30T15:08:40.148Z,29.50
2022-11-30T15:11:09.540Z,29.40
2022-11-30T15:13:47.316Z,29.30
2022-11-30T15:16:25.378Z,29.30
2022-11-30T15:18:53.355Z,29.30
2022-11-30T15:21:31.659Z,29.20
2022-11-30T15:24:00.390Z,29.20
2022-11-30T15:26:52.244Z,29.20
2022-11-30T15:29:34.553Z,29.10
2022-11-30T15:32:04.346Z,29.10
2022-11-30T15:34:40.140Z,29.10
2022-11-30T15:37:07.053Z,29.00
2022-11-30T15:39:33.124Z,29.00
2022-11-30T15:42:02.351Z,28.90
2022-11-30T15:44:38.126Z,28.90
2022-11-30T15:47:22.768Z,28.90
2022-11-30T15:49:54.052Z,28.80
2022-11-30T15:52:25.803Z,28.80
2022-11-30T15:54:56.805Z,28.80
2022-11-30T15:57:25.300Z,28.80
2022-11-30T16:00:15.665Z,28.70
2022-11-30T16:02:41.728Z,28.70
2022-11-30T16:05:15.079Z,28.50
2022-11-30T16:07:48.408Z,28.50
2022-11-30T16:10:35.870Z,28.50
2022-11-30T16:13:03.470Z,28.50
2022-11-30T16:15:35.346Z,28.50
2022-11-30T16:18:14.358Z,28.50
2022-11-30T16:20:41.819Z,28.50
2022-11-30T16:23:15.359Z,28.50
2022-11-30T16:25:42.750Z,28.50
2022-11-30T16:28:10.365Z,28.40
2022-11-30T16:30:37.011Z,28.40
2022-11-30T16:33:03.757Z,28.40
2022-11-30T16:35:41.511Z,28.40
2022-11-30T16:38:07.612Z,28.40
2022-11-30T16:40:38.507Z,28.40
2022-11-30T16:43:05.434Z,28.30
2022-11-30T16:45:35.780Z,28.30
2022-11-30T16:48:02.512Z,28.30
2022-11-30T16:50:29.171Z,28.30
2022-11-30T16:52:55.208Z,28.30
2022-11-30T16:55:22.321Z,28.30
2022-11-30T16:57:49.906Z,28.30
2022-11-30T17:00:18.484Z,28.30
2022-11-30T17:02:54.403Z,28.30
2022-11-30T17:05:20.524Z,28.20
2022-11-30T17:07:46.667Z,28.20
2022-11-30T17:10:12.912Z,28.20
2022-11-30T17:12:39.596Z,28.20
2022-11-30T17:15:06.496Z,28.20
2022-11-30T17:17:32.556Z,28.10
2022-11-30T17:19:58.610Z,28.00
2022-11-30T17:22:24.665Z,28.10
2022-11-30T17:24:50.779Z,28.10
2022-11-30T17:27:16.893Z,28.10
2022-11-30T17:29:42.948Z,28.10
2022-11-30T17:32:09.042Z,28.00
2022-11-30T17:34:35.085Z,28.00
2022-11-30T17:37:01.145Z,28.00
2022-11-30T17:39:27.540Z,28.00
2022-11-30T17:41:53.572Z,28.00
2022-11-30T17:44:19.617Z,28.00
2022-11-30T17:46:48.328Z,28.00
2022-11-30T17:49:14.594Z,28.00
2022-11-30T17:51:40.674Z,27.90
2022-11-30T17:54:06.778Z,27.90
2022-11-30T17:56:32.816Z,27.90
2022-11-30T17:58:59.123Z,27.90
2022-11-30T18:01:27.154Z,27.90
2022-11-30T18:03:55.206Z,28.20
2022-11-30T18:06:21.319Z,28.50
2022-11-30T18:08:47.677Z,28.50
2022-11-30T18:11:19.685Z,28.50
2022-11-30T18:13:46.870Z,28.60
2022-11-30T18:16:18.355Z,28.60
2022-11-30T18:18:48.063Z,28.60
2022-11-30T18:21:18.097Z,28.60
2022-11-30T18:23:44.957Z,28.60
2022-11-30T18:26:13.494Z,28.60
2022-11-30T18:28:39.947Z,28.60
2022-11-30T18:31:06.334Z,28.70
2022-11-30T18:33:34.846Z,28.70
2022-11-30T18:36:01.614Z,28.70
2022-11-30T18:38:31.548Z,29.20
2022-11-30T18:41:00.326Z,28.70
2022-11-30T18:43:26.386Z,28.80
2022-11-30T18:45:52.474Z,28.80
2022-11-30T18:48:18.601Z,28.80
2022-11-30T18:50:44.673Z,28.80
2022-11-30T18:53:13.867Z,28.80
2022-11-30T18:55:44.004Z,28.80
2022-11-30T18:58:10.114Z,28.80
2022-11-30T19:00:36.156Z,28.90
2022-11-30T19:03:02.242Z,28.90
2022-11-30T19:05:30.984Z,28.90
2022-11-30T19:08:04.801Z,28.90
2022-11-30T19:10:35.650Z,28.90
2022-11-30T19:13:03.389Z,28.90
2022-11-30T19:15:39.483Z,28.90
2022-11-30T19:18:06.441Z,28.90
2022-11-30T19:20:38.472Z,29.00
2022-11-30T19:23:04.544Z,29.00
2022-11-30T19:25:30.560Z,29.00
2022-11-30T19:27:56.601Z,29.00
2022-11-30T19:30:22.733Z,29.00
2022-11-30T19:32:48.825Z,29.00
2022-11-30T19:35:14.916Z,29.00
2022-11-30T19:37:40.952Z,29.00
2022-11-30T19:40:07.589Z,29.00
2022-11-30T19:42:33.677Z,29.00
2022-11-30T19:44:59.746Z,29.00
2022-11-30T19:47:25.823Z,29.00
2022-11-30T19:49:51.873Z,29.00
2022-11-30T19:52:19.694Z,29.00
2022-11-30T19:54:45.960Z,29.00
2022-11-30T19:57:12.859Z,29.10
2022-11-30T19:59:38.919Z,29.10
2022-11-30T20:02:05.467Z,29.10
2022-11-30T20:04:31.612Z,29.60
2022-11-30T20:07:00.050Z,29.10
2022-11-30T20:09:26.145Z,29.10
2022-11-30T20:11:53.081Z,29.10
2022-11-30T20:14:21.752Z,29.10
2022-11-30T20:16:48.313Z,29.10
2022-11-30T20:19:15.703Z,29.20
2022-11-30T20:21:41.797Z,29.20
2022-11-30T20:24:10.708Z,29.20
2022-11-30T20:26:39.817Z,29.20
2022-11-30T20:29:07.439Z,29.20
2022-11-30T20:31:35.376Z,29.20
2022-11-30T20:34:01.691Z,29.20
2022-11-30T20:36:28.096Z,29.30
2022-11-30T20:38:54.404Z,29.20
2022-11-30T20:41:22.621Z,29.30
2022-11-30T20:43:49.220Z,29.30
2022-11-30T20:46:30.059Z,29.30
2022-11-30T20:48:57.085Z,29.30
2022-11-30T20:51:33.306Z,29.30
2022-11-30T20:54:02.139Z,29.30
2022-11-30T20:56:28.258Z,29.30
2022-11-30T20:58:54.435Z,29.30
2022-11-30T21:01:22.241Z,29.30
2022-11-30T21:03:48.613Z,29.30
2022-11-30T21:06:15.121Z,29.30
2022-11-30T21:08:41.678Z,29.30
2022-11-30T21:11:11.580Z,29.30
2022-11-30T21:13:38.424Z,29.30
2022-11-30T21:16:06.508Z,29.30
2022-11-30T21:18:36.600Z,29.40
2022-11-30T21:21:05.005Z,29.40
2022-11-30T21:23:31.101Z,29.40
2022-11-30T21:26:03.549Z,29.40
2022-11-30T21:28:34.832Z,29.40
2022-11-30T21:31:04.239Z,29.40
2022-11-30T21:33:30.623Z,29.40
2022-11-30T21:35:56.680Z,29.40
2022-11-30T21:38:22.746Z,29.40
2022-11-30T21:40:56.459Z,29.40
2022-11-30T21:43:22.880Z,29.40
2022-11-30T21:46:07.199Z,29.40
2022-11-30T21:48:37.672Z,29.40
2022-11-30T21:51:06.636Z,29.50
2022-11-30T21:53:36.522Z,29.40
2022-11-30T21:56:07.796Z,29.40
2022-11-30T21:58:34.443Z,29.40
2022-11-30T22:01:02.081Z,29.40
2022-11-30T22:03:28.570Z,29.70
2022-11-30T22:06:09.489Z,29.50
2022-11-30T22:08:36.408Z,29.90
2022-11-30T22:11:05.256Z,29.40
2022-11-30T22:13:32.095Z,29.50
2022-11-30T22:16:06.624Z,29.50
2022-11-30T22:18:33.077Z,29.50
2022-11-30T22:21:08.358Z,29.50
2022-11-30T22:23:39.388Z,29.50
2022-11-30T22:26:17.461Z,29.50
2022-11-30T22:28:46.171Z,29.50
2022-11-30T22:31:14.171Z,29.50
2022-11-30T22:33:42.064Z,29.50
2022-11-30T22:36:12.576Z,29.50
2022-11-30T22:38:38.646Z,29.50
2022-11-30T22:41:15.137Z,29.50
2022-11-30T22:43:42.401Z,29.50
2022-11-30T22:46:11.559Z,29.50
2022-11-30T22:48:38.481Z,29.50
2022-11-30T22:51:07.084Z,29.50
2022-11-30T22:53:35.469Z,29.50
2022-11-30T22:56:06.680Z,29.50
2022-11-30T22:58:33.283Z,29.60
2022-11-30T23:01:14.470Z,29.50
2022-11-30T23:03:42.233Z,29.50
2022-11-30T23:06:09.425Z,29.50
2022-11-30T23:08:36.553Z,29.50
2022-11-30T23:11:06.192Z,29.50
2022-11-30T23:13:32.584Z,29.60
2022-11-30T23:15:59.295Z,29.60
2022-11-30T23:18:30.727Z,29.50
2022-11-30T23:21:03.529Z,29.60
2022-11-30T23:23:29.704Z,29.60
2022-11-30T23:25:56.038Z,29.60
2022-11-30T23:28:22.183Z,29.60
2022-11-30T23:30:48.240Z,29.60
2022-11-30T23:33:14.364Z,29.60
2022-11-30T23:35:43.638Z,29.70
2022-11-30T23:38:10.326Z,29.60
2022-11-30T23:40:36.474Z,29.70
2022-11-30T23:43:02.529Z,29.70
2022-11-30T23:45:28.572Z,29.70
2022-11-30T23:47:54.618Z,29.60
2022-11-30T23:50:20.659Z,29.70
2022-11-30T23:52:46.702Z,29.70
2022-11-30T23:55:12.772Z,29.70
2022-11-30T23:57:38.816Z,29.70
